sensor_id;sensor_type;location;lat;lon;timestamp;temperature;humidity
67529;DHT22;54366;51.980;5.856;2024-02-16T00:01:38;12.50;87.40
67529;DHT22;54366;51.980;5.856;2024-02-16T00:04:04;12.50;87.50
67529;DHT22;54366;51.980;5.856;2024-02-16T00:06:30;12.40;87.30
67529;DHT22;54366;51.980;5.856;2024-02-16T00:08:57;12.40;87.40
67529;DHT22;54366;51.980;5.856;2024-02-16T00:11:23;12.40;87.30
67529;DHT22;54366;51.980;5.856;2024-02-16T00:13:51;12.40;87.40
67529;DHT22;54366;51.980;5.856;2024-02-16T00:16:17;12.40;87.40
67529;DHT22;54366;51.980;5.856;2024-02-16T00:18:44;12.40;87.40
67529;DHT22;54366;51.980;5.856;2024-02-16T00:21:10;12.30;87.90
67529;DHT22;54366;51.980;5.856;2024-02-16T00:23:36;12.30;87.40
67529;DHT22;54366;51.980;5.856;2024-02-16T00:26:03;12.30;87.50
67529;DHT22;54366;51.980;5.856;2024-02-16T00:28:39;12.30;87.40
67529;DHT22;54366;51.980;5.856;2024-02-16T00:31:05;12.30;87.40
67529;DHT22;54366;51.980;5.856;2024-02-16T00:33:31;12.30;87.40
67529;DHT22;54366;51.980;5.856;2024-02-16T00:35:58;12.30;87.40
67529;DHT22;54366;51.980;5.856;2024-02-16T00:38:24;12.30;87.40
67529;DHT22;54366;51.980;5.856;2024-02-16T00:40:50;12.20;87.30
67529;DHT22;54366;51.980;5.856;2024-02-16T00:43:17;12.20;87.40
67529;DHT22;54366;51.980;5.856;2024-02-16T00:45:43;12.20;87.40
67529;DHT22;54366;51.980;5.856;2024-02-16T00:48:11;12.10;87.40
67529;DHT22;54366;51.980;5.856;2024-02-16T00:50:37;12.10;87.50
67529;DHT22;54366;51.980;5.856;2024-02-16T00:53:04;12.00;87.40
67529;DHT22;54366;51.980;5.856;2024-02-16T00:55:30;12.00;87.50
67529;DHT22;54366;51.980;5.856;2024-02-16T00:57:56;12.00;87.50
67529;DHT22;54366;51.980;5.856;2024-02-16T01:00:23;12.00;87.60
67529;DHT22;54366;51.980;5.856;2024-02-16T01:02:49;11.90;87.60
67529;DHT22;54366;51.980;5.856;2024-02-16T01:05:16;11.90;87.60
67529;DHT22;54366;51.980;5.856;2024-02-16T01:07:44;12.00;87.70
67529;DHT22;54366;51.980;5.856;2024-02-16T01:10:11;11.90;87.60
67529;DHT22;54366;51.980;5.856;2024-02-16T01:12:38;11.90;87.60
67529;DHT22;54366;51.980;5.856;2024-02-16T01:15:05;11.90;87.60
67529;DHT22;54366;51.980;5.856;2024-02-16T01:17:32;11.90;87.70
67529;DHT22;54366;51.980;5.856;2024-02-16T01:19:58;11.90;87.80
67529;DHT22;54366;51.980;5.856;2024-02-16T01:22:25;11.90;87.70
67529;DHT22;54366;51.980;5.856;2024-02-16T01:24:52;11.90;87.70
67529;DHT22;54366;51.980;5.856;2024-02-16T01:27:19;11.90;87.70
67529;DHT22;54366;51.980;5.856;2024-02-16T01:29:45;11.90;87.60
67529;DHT22;54366;51.980;5.856;2024-02-16T01:32:11;11.90;87.60
67529;DHT22;54366;51.980;5.856;2024-02-16T01:34:40;11.90;87.60
67529;DHT22;54366;51.980;5.856;2024-02-16T01:37:06;11.90;87.60
67529;DHT22;54366;51.980;5.856;2024-02-16T01:39:32;11.90;87.60
67529;DHT22;54366;51.980;5.856;2024-02-16T01:41:58;11.90;87.60
67529;DHT22;54366;51.980;5.856;2024-02-16T01:44:25;11.80;87.50
67529;DHT22;54366;51.980;5.856;2024-02-16T01:46:51;11.80;87.50
67529;DHT22;54366;51.980;5.856;2024-02-16T01:49:17;11.80;87.50
67529;DHT22;54366;51.980;5.856;2024-02-16T01:51:44;11.80;87.50
67529;DHT22;54366;51.980;5.856;2024-02-16T01:54:11;11.70;87.50
67529;DHT22;54366;51.980;5.856;2024-02-16T01:56:38;11.70;87.50
67529;DHT22;54366;51.980;5.856;2024-02-16T01:59:05;11.60;87.60
67529;DHT22;54366;51.980;5.856;2024-02-16T02:01:31;11.60;87.60
67529;DHT22;54366;51.980;5.856;2024-02-16T02:03:57;11.60;87.60
67529;DHT22;54366;51.980;5.856;2024-02-16T02:06:24;11.50;87.60
67529;DHT22;54366;51.980;5.856;2024-02-16T02:08:51;11.50;87.70
67529;DHT22;54366;51.980;5.856;2024-02-16T02:11:17;11.50;87.70
67529;DHT22;54366;51.980;5.856;2024-02-16T02:13:44;11.50;87.70
67529;DHT22;54366;51.980;5.856;2024-02-16T02:16:10;11.50;87.70
67529;DHT22;54366;51.980;5.856;2024-02-16T02:18:37;11.50;87.70
67529;DHT22;54366;51.980;5.856;2024-02-16T02:21:04;11.50;87.70
67529;DHT22;54366;51.980;5.856;2024-02-16T02:23:30;11.50;87.80
67529;DHT22;54366;51.980;5.856;2024-02-16T02:25:57;11.50;87.70
67529;DHT22;54366;51.980;5.856;2024-02-16T02:28:23;11.40;87.70
67529;DHT22;54366;51.980;5.856;2024-02-16T02:30:50;11.40;87.70
67529;DHT22;54366;51.980;5.856;2024-02-16T02:33:17;11.40;87.70
67529;DHT22;54366;51.980;5.856;2024-02-16T02:35:43;11.30;87.80
67529;DHT22;54366;51.980;5.856;2024-02-16T02:38:09;11.30;87.70
67529;DHT22;54366;51.980;5.856;2024-02-16T02:40:36;11.30;87.80
67529;DHT22;54366;51.980;5.856;2024-02-16T02:43:03;11.30;87.80
67529;DHT22;54366;51.980;5.856;2024-02-16T02:45:29;11.30;87.90
67529;DHT22;54366;51.980;5.856;2024-02-16T02:47:56;11.30;87.90
67529;DHT22;54366;51.980;5.856;2024-02-16T02:50:22;11.30;88.60
67529;DHT22;54366;51.980;5.856;2024-02-16T02:52:49;11.30;87.80
67529;DHT22;54366;51.980;5.856;2024-02-16T02:55:15;11.30;87.90
67529;DHT22;54366;51.980;5.856;2024-02-16T02:57:42;11.40;88.00
67529;DHT22;54366;51.980;5.856;2024-02-16T03:00:09;11.30;87.90
67529;DHT22;54366;51.980;5.856;2024-02-16T03:02:38;11.30;88.00
67529;DHT22;54366;51.980;5.856;2024-02-16T03:05:08;11.30;88.00
67529;DHT22;54366;51.980;5.856;2024-02-16T03:07:35;11.30;88.00
67529;DHT22;54366;51.980;5.856;2024-02-16T03:10:02;11.30;88.00
67529;DHT22;54366;51.980;5.856;2024-02-16T03:12:29;11.30;88.10
67529;DHT22;54366;51.980;5.856;2024-02-16T03:14:56;11.20;88.00
67529;DHT22;54366;51.980;5.856;2024-02-16T03:17:22;11.20;88.00
67529;DHT22;54366;51.980;5.856;2024-02-16T03:19:48;11.30;88.10
67529;DHT22;54366;51.980;5.856;2024-02-16T03:22:15;11.30;88.10
67529;DHT22;54366;51.980;5.856;2024-02-16T03:24:41;11.30;88.10
67529;DHT22;54366;51.980;5.856;2024-02-16T03:27:07;11.30;88.10
67529;DHT22;54366;51.980;5.856;2024-02-16T03:29:33;11.30;88.10
67529;DHT22;54366;51.980;5.856;2024-02-16T03:32:00;11.30;88.10
67529;DHT22;54366;51.980;5.856;2024-02-16T03:34:26;11.30;88.10
67529;DHT22;54366;51.980;5.856;2024-02-16T03:36:52;11.30;88.20
67529;DHT22;54366;51.980;5.856;2024-02-16T03:39:19;11.30;88.20
67529;DHT22;54366;51.980;5.856;2024-02-16T03:41:46;11.30;88.80
67529;DHT22;54366;51.980;5.856;2024-02-16T03:44:15;11.30;88.20
67529;DHT22;54366;51.980;5.856;2024-02-16T03:46:42;11.30;88.20
67529;DHT22;54366;51.980;5.856;2024-02-16T03:49:09;11.30;88.20
67529;DHT22;54366;51.980;5.856;2024-02-16T03:51:36;11.30;88.10
67529;DHT22;54366;51.980;5.856;2024-02-16T03:54:03;11.30;88.20
67529;DHT22;54366;51.980;5.856;2024-02-16T03:56:30;11.20;88.20
67529;DHT22;54366;51.980;5.856;2024-02-16T03:58:57;11.20;88.20
67529;DHT22;54366;51.980;5.856;2024-02-16T04:01:23;11.10;88.20
67529;DHT22;54366;51.980;5.856;2024-02-16T04:03:50;11.10;88.20
67529;DHT22;54366;51.980;5.856;2024-02-16T04:06:18;11.20;88.20
67529;DHT22;54366;51.980;5.856;2024-02-16T04:08:44;11.20;88.10
67529;DHT22;54366;51.980;5.856;2024-02-16T04:11:14;11.20;88.20
67529;DHT22;54366;51.980;5.856;2024-02-16T04:13:41;11.10;88.20
67529;DHT22;54366;51.980;5.856;2024-02-16T04:16:07;11.20;88.20
67529;DHT22;54366;51.980;5.856;2024-02-16T04:18:34;11.20;88.10
67529;DHT22;54366;51.980;5.856;2024-02-16T04:21:00;11.10;88.10
67529;DHT22;54366;51.980;5.856;2024-02-16T04:23:27;11.20;88.20
67529;DHT22;54366;51.980;5.856;2024-02-16T04:25:53;11.20;88.10
67529;DHT22;54366;51.980;5.856;2024-02-16T04:28:19;11.10;88.10
67529;DHT22;54366;51.980;5.856;2024-02-16T04:30:46;11.20;88.20
67529;DHT22;54366;51.980;5.856;2024-02-16T04:33:12;11.20;88.10
67529;DHT22;54366;51.980;5.856;2024-02-16T04:35:38;11.20;88.10
67529;DHT22;54366;51.980;5.856;2024-02-16T04:38:05;11.20;88.00
67529;DHT22;54366;51.980;5.856;2024-02-16T04:40:37;11.20;87.90
67529;DHT22;54366;51.980;5.856;2024-02-16T04:43:03;11.20;88.00
67529;DHT22;54366;51.980;5.856;2024-02-16T04:45:30;11.20;88.00
67529;DHT22;54366;51.980;5.856;2024-02-16T04:47:56;11.20;88.00
67529;DHT22;54366;51.980;5.856;2024-02-16T04:50:23;11.20;88.00
67529;DHT22;54366;51.980;5.856;2024-02-16T04:52:49;11.20;88.00
67529;DHT22;54366;51.980;5.856;2024-02-16T04:55:16;11.20;87.90
67529;DHT22;54366;51.980;5.856;2024-02-16T04:57:42;11.20;88.00
67529;DHT22;54366;51.980;5.856;2024-02-16T05:00:09;11.10;88.00
67529;DHT22;54366;51.980;5.856;2024-02-16T05:02:36;11.20;88.10
67529;DHT22;54366;51.980;5.856;2024-02-16T05:05:02;11.20;88.00
67529;DHT22;54366;51.980;5.856;2024-02-16T05:07:29;11.30;88.10
67529;DHT22;54366;51.980;5.856;2024-02-16T05:09:57;11.30;88.10
67529;DHT22;54366;51.980;5.856;2024-02-16T05:12:25;11.30;88.00
67529;DHT22;54366;51.980;5.856;2024-02-16T05:14:52;11.40;88.00
67529;DHT22;54366;51.980;5.856;2024-02-16T05:17:19;11.40;88.00
67529;DHT22;54366;51.980;5.856;2024-02-16T05:19:46;11.40;87.90
67529;DHT22;54366;51.980;5.856;2024-02-16T05:22:12;11.50;87.90
67529;DHT22;54366;51.980;5.856;2024-02-16T05:24:38;11.40;87.80
67529;DHT22;54366;51.980;5.856;2024-02-16T05:27:05;11.40;88.20
67529;DHT22;54366;51.980;5.856;2024-02-16T05:29:31;11.50;88.00
67529;DHT22;54366;51.980;5.856;2024-02-16T05:31:57;11.50;87.90
67529;DHT22;54366;51.980;5.856;2024-02-16T05:34:24;11.50;87.90
67529;DHT22;54366;51.980;5.856;2024-02-16T05:36:50;11.50;87.90
67529;DHT22;54366;51.980;5.856;2024-02-16T05:39:17;11.60;87.70
67529;DHT22;54366;51.980;5.856;2024-02-16T05:41:47;11.60;87.60
67529;DHT22;54366;51.980;5.856;2024-02-16T05:44:13;11.60;87.60
67529;DHT22;54366;51.980;5.856;2024-02-16T05:46:39;11.70;87.70
67529;DHT22;54366;51.980;5.856;2024-02-16T05:49:05;11.70;87.60
67529;DHT22;54366;51.980;5.856;2024-02-16T05:51:35;11.70;87.60
67529;DHT22;54366;51.980;5.856;2024-02-16T05:54:03;11.70;87.60
67529;DHT22;54366;51.980;5.856;2024-02-16T05:56:29;11.80;87.70
67529;DHT22;54366;51.980;5.856;2024-02-16T05:58:56;11.70;87.60
67529;DHT22;54366;51.980;5.856;2024-02-16T06:01:22;11.80;87.70
67529;DHT22;54366;51.980;5.856;2024-02-16T06:03:48;11.80;87.60
67529;DHT22;54366;51.980;5.856;2024-02-16T06:06:15;11.70;87.50
67529;DHT22;54366;51.980;5.856;2024-02-16T06:08:41;11.70;87.60
67529;DHT22;54366;51.980;5.856;2024-02-16T06:11:07;11.70;87.50
67529;DHT22;54366;51.980;5.856;2024-02-16T06:13:34;11.70;87.60
67529;DHT22;54366;51.980;5.856;2024-02-16T06:16:00;11.80;87.70
67529;DHT22;54366;51.980;5.856;2024-02-16T06:18:26;11.80;87.60
67529;DHT22;54366;51.980;5.856;2024-02-16T06:20:55;11.80;87.50
67529;DHT22;54366;51.980;5.856;2024-02-16T06:23:22;11.90;88.10
67529;DHT22;54366;51.980;5.856;2024-02-16T06:25:48;11.90;87.50
67529;DHT22;54366;51.980;5.856;2024-02-16T06:28:14;11.90;87.50
67529;DHT22;54366;51.980;5.856;2024-02-16T06:30:40;11.90;88.00
67529;DHT22;54366;51.980;5.856;2024-02-16T06:33:07;11.90;87.40
67529;DHT22;54366;51.980;5.856;2024-02-16T06:35:33;11.90;87.30
67529;DHT22;54366;51.980;5.856;2024-02-16T06:37:59;12.00;87.30
67529;DHT22;54366;51.980;5.856;2024-02-16T06:40:26;12.00;87.30
67529;DHT22;54366;51.980;5.856;2024-02-16T06:42:52;12.00;87.30
67529;DHT22;54366;51.980;5.856;2024-02-16T06:45:18;12.10;87.30
67529;DHT22;54366;51.980;5.856;2024-02-16T06:47:46;12.10;87.20
67529;DHT22;54366;51.980;5.856;2024-02-16T06:50:12;12.10;87.00
67529;DHT22;54366;51.980;5.856;2024-02-16T06:52:38;12.10;87.00
67529;DHT22;54366;51.980;5.856;2024-02-16T06:55:05;12.20;87.10
67529;DHT22;54366;51.980;5.856;2024-02-16T06:57:31;12.20;87.00
67529;DHT22;54366;51.980;5.856;2024-02-16T06:59:58;12.20;86.90
67529;DHT22;54366;51.980;5.856;2024-02-16T07:02:24;12.20;87.00
67529;DHT22;54366;51.980;5.856;2024-02-16T07:04:51;12.20;86.90
67529;DHT22;54366;51.980;5.856;2024-02-16T07:07:17;12.20;87.00
67529;DHT22;54366;51.980;5.856;2024-02-16T07:09:45;12.20;86.90
67529;DHT22;54366;51.980;5.856;2024-02-16T07:12:11;12.20;87.00
67529;DHT22;54366;51.980;5.856;2024-02-16T07:14:38;12.30;87.10
67529;DHT22;54366;51.980;5.856;2024-02-16T07:17:05;12.20;87.00
67529;DHT22;54366;51.980;5.856;2024-02-16T07:19:36;12.30;87.00
67529;DHT22;54366;51.980;5.856;2024-02-16T07:22:03;12.30;87.10
67529;DHT22;54366;51.980;5.856;2024-02-16T07:24:32;12.30;87.00
67529;DHT22;54366;51.980;5.856;2024-02-16T07:26:59;12.40;87.10
67529;DHT22;54366;51.980;5.856;2024-02-16T07:29:25;12.30;87.10
67529;DHT22;54366;51.980;5.856;2024-02-16T07:31:53;12.40;87.20
67529;DHT22;54366;51.980;5.856;2024-02-16T07:34:19;12.40;87.20
67529;DHT22;54366;51.980;5.856;2024-02-16T07:36:46;12.40;87.20
67529;DHT22;54366;51.980;5.856;2024-02-16T07:39:12;12.40;87.20
67529;DHT22;54366;51.980;5.856;2024-02-16T07:41:39;12.40;87.20
67529;DHT22;54366;51.980;5.856;2024-02-16T07:44:05;12.40;87.20
67529;DHT22;54366;51.980;5.856;2024-02-16T07:46:32;12.40;87.10
67529;DHT22;54366;51.980;5.856;2024-02-16T07:48:58;12.40;87.10
67529;DHT22;54366;51.980;5.856;2024-02-16T07:51:24;12.40;87.10
67529;DHT22;54366;51.980;5.856;2024-02-16T07:53:50;12.50;87.10
67529;DHT22;54366;51.980;5.856;2024-02-16T07:56:17;12.50;87.10
67529;DHT22;54366;51.980;5.856;2024-02-16T07:58:44;12.50;87.20
67529;DHT22;54366;51.980;5.856;2024-02-16T08:01:12;12.60;87.20
67529;DHT22;54366;51.980;5.856;2024-02-16T08:03:41;12.60;87.20
67529;DHT22;54366;51.980;5.856;2024-02-16T08:06:07;12.60;87.20
67529;DHT22;54366;51.980;5.856;2024-02-16T08:08:33;12.60;87.10
67529;DHT22;54366;51.980;5.856;2024-02-16T08:11:00;12.60;87.10
67529;DHT22;54366;51.980;5.856;2024-02-16T08:13:26;12.60;87.10
67529;DHT22;54366;51.980;5.856;2024-02-16T08:15:53;12.70;87.20
67529;DHT22;54366;51.980;5.856;2024-02-16T08:18:19;12.70;87.10
67529;DHT22;54366;51.980;5.856;2024-02-16T08:20:46;12.70;87.10
67529;DHT22;54366;51.980;5.856;2024-02-16T08:23:12;12.70;87.00
67529;DHT22;54366;51.980;5.856;2024-02-16T08:25:38;12.80;87.10
67529;DHT22;54366;51.980;5.856;2024-02-16T08:28:05;12.80;87.00
67529;DHT22;54366;51.980;5.856;2024-02-16T08:30:31;12.80;87.00
67529;DHT22;54366;51.980;5.856;2024-02-16T08:32:58;12.90;87.00
67529;DHT22;54366;51.980;5.856;2024-02-16T08:35:26;12.90;87.00
67529;DHT22;54366;51.980;5.856;2024-02-16T08:37:52;12.90;87.00
67529;DHT22;54366;51.980;5.856;2024-02-16T08:40:18;13.00;87.10
67529;DHT22;54366;51.980;5.856;2024-02-16T08:42:45;13.00;87.10
67529;DHT22;54366;51.980;5.856;2024-02-16T08:45:11;13.00;87.20
67529;DHT22;54366;51.980;5.856;2024-02-16T08:47:38;13.00;87.10
67529;DHT22;54366;51.980;5.856;2024-02-16T08:50:05;13.00;87.10
67529;DHT22;54366;51.980;5.856;2024-02-16T08:52:33;13.00;87.20
67529;DHT22;54366;51.980;5.856;2024-02-16T08:54:59;13.10;87.20
67529;DHT22;54366;51.980;5.856;2024-02-16T08:57:25;13.10;87.20
67529;DHT22;54366;51.980;5.856;2024-02-16T08:59:51;13.10;87.20
67529;DHT22;54366;51.980;5.856;2024-02-16T09:02:18;13.20;87.30
67529;DHT22;54366;51.980;5.856;2024-02-16T09:04:45;13.20;87.20
67529;DHT22;54366;51.980;5.856;2024-02-16T09:07:11;13.30;87.30
67529;DHT22;54366;51.980;5.856;2024-02-16T09:09:38;13.30;87.30
67529;DHT22;54366;51.980;5.856;2024-02-16T09:12:05;13.40;87.30
67529;DHT22;54366;51.980;5.856;2024-02-16T09:14:31;13.40;87.20
67529;DHT22;54366;51.980;5.856;2024-02-16T09:16:58;13.40;87.10
67529;DHT22;54366;51.980;5.856;2024-02-16T09:19:24;13.40;87.10
67529;DHT22;54366;51.980;5.856;2024-02-16T09:21:50;13.50;87.10
67529;DHT22;54366;51.980;5.856;2024-02-16T09:24:17;13.50;87.10
67529;DHT22;54366;51.980;5.856;2024-02-16T09:26:44;13.50;87.10
67529;DHT22;54366;51.980;5.856;2024-02-16T09:29:14;13.50;87.00
67529;DHT22;54366;51.980;5.856;2024-02-16T09:31:41;13.60;87.00
67529;DHT22;54366;51.980;5.856;2024-02-16T09:34:07;13.60;86.90
67529;DHT22;54366;51.980;5.856;2024-02-16T09:36:33;13.60;86.90
67529;DHT22;54366;51.980;5.856;2024-02-16T09:39:02;13.60;86.80
67529;DHT22;54366;51.980;5.856;2024-02-16T09:41:28;13.60;86.70
67529;DHT22;54366;51.980;5.856;2024-02-16T09:43:55;13.70;86.80
67529;DHT22;54366;51.980;5.856;2024-02-16T09:46:23;13.70;86.90
67529;DHT22;54366;51.980;5.856;2024-02-16T09:48:49;13.70;86.90
67529;DHT22;54366;51.980;5.856;2024-02-16T09:51:18;13.70;86.80
67529;DHT22;54366;51.980;5.856;2024-02-16T09:53:50;13.70;86.80
67529;DHT22;54366;51.980;5.856;2024-02-16T09:56:21;13.80;87.00
67529;DHT22;54366;51.980;5.856;2024-02-16T09:58:48;13.80;86.90
67529;DHT22;54366;51.980;5.856;2024-02-16T10:01:22;13.70;86.80
67529;DHT22;54366;51.980;5.856;2024-02-16T10:03:49;13.80;87.00
67529;DHT22;54366;51.980;5.856;2024-02-16T10:06:17;13.80;86.80
67529;DHT22;54366;51.980;5.856;2024-02-16T10:08:54;13.80;86.80
67529;DHT22;54366;51.980;5.856;2024-02-16T10:11:22;13.80;86.80
67529;DHT22;54366;51.980;5.856;2024-02-16T10:14:03;13.90;86.90
67529;DHT22;54366;51.980;5.856;2024-02-16T10:16:31;13.90;86.80
67529;DHT22;54366;51.980;5.856;2024-02-16T10:19:07;13.90;86.80
67529;DHT22;54366;51.980;5.856;2024-02-16T10:21:33;14.00;86.90
67529;DHT22;54366;51.980;5.856;2024-02-16T10:24:07;14.00;86.90
67529;DHT22;54366;51.980;5.856;2024-02-16T10:26:35;14.00;86.80
67529;DHT22;54366;51.980;5.856;2024-02-16T10:29:05;14.00;86.80
67529;DHT22;54366;51.980;5.856;2024-02-16T10:31:32;14.00;86.60
67529;DHT22;54366;51.980;5.856;2024-02-16T10:34:01;14.00;87.30
67529;DHT22;54366;51.980;5.856;2024-02-16T10:36:34;14.00;86.80
67529;DHT22;54366;51.980;5.856;2024-02-16T10:39:02;14.00;86.80
67529;DHT22;54366;51.980;5.856;2024-02-16T10:41:36;14.00;86.80
67529;DHT22;54366;51.980;5.856;2024-02-16T10:44:03;14.00;86.80
67529;DHT22;54366;51.980;5.856;2024-02-16T10:46:33;14.00;86.80
67529;DHT22;54366;51.980;5.856;2024-02-16T10:49:00;14.00;86.80
67529;DHT22;54366;51.980;5.856;2024-02-16T10:51:46;14.00;86.90
67529;DHT22;54366;51.980;5.856;2024-02-16T10:54:18;14.00;86.90
67529;DHT22;54366;51.980;5.856;2024-02-16T10:56:45;14.00;86.90
67529;DHT22;54366;51.980;5.856;2024-02-16T10:59:11;14.00;86.90
67529;DHT22;54366;51.980;5.856;2024-02-16T11:01:42;14.00;87.00
67529;DHT22;54366;51.980;5.856;2024-02-16T11:04:15;14.00;87.10
67529;DHT22;54366;51.980;5.856;2024-02-16T11:06:55;13.90;87.10
67529;DHT22;54366;51.980;5.856;2024-02-16T11:09:39;14.00;87.20
67529;DHT22;54366;51.980;5.856;2024-02-16T11:12:07;13.90;87.20
67529;DHT22;54366;51.980;5.856;2024-02-16T11:14:45;13.90;87.20
67529;DHT22;54366;51.980;5.856;2024-02-16T11:17:15;13.90;87.30
67529;DHT22;54366;51.980;5.856;2024-02-16T11:19:46;13.90;87.40
67529;DHT22;54366;51.980;5.856;2024-02-16T11:22:19;13.90;87.50
67529;DHT22;54366;51.980;5.856;2024-02-16T11:24:50;13.80;87.70
67529;DHT22;54366;51.980;5.856;2024-02-16T11:27:19;13.80;87.80
67529;DHT22;54366;51.980;5.856;2024-02-16T11:29:46;13.80;87.90
67529;DHT22;54366;51.980;5.856;2024-02-16T11:32:12;13.70;88.60
67529;DHT22;54366;51.980;5.856;2024-02-16T11:34:38;13.70;88.10
67529;DHT22;54366;51.980;5.856;2024-02-16T11:37:05;13.70;88.20
67529;DHT22;54366;51.980;5.856;2024-02-16T11:39:31;13.70;88.30
67529;DHT22;54366;51.980;5.856;2024-02-16T11:42:02;13.60;88.40
67529;DHT22;54366;51.980;5.856;2024-02-16T11:44:30;13.60;88.60
67529;DHT22;54366;51.980;5.856;2024-02-16T11:46:59;13.60;88.90
67529;DHT22;54366;51.980;5.856;2024-02-16T11:49:28;13.50;88.90
67529;DHT22;54366;51.980;5.856;2024-02-16T11:51:55;13.60;89.00
67529;DHT22;54366;51.980;5.856;2024-02-16T11:54:21;13.50;89.00
67529;DHT22;54366;51.980;5.856;2024-02-16T11:56:48;13.50;89.20
67529;DHT22;54366;51.980;5.856;2024-02-16T11:59:18;13.50;89.20
67529;DHT22;54366;51.980;5.856;2024-02-16T12:01:58;13.50;89.30
67529;DHT22;54366;51.980;5.856;2024-02-16T12:04:29;13.50;89.30
67529;DHT22;54366;51.980;5.856;2024-02-16T12:07:01;13.50;89.40
67529;DHT22;54366;51.980;5.856;2024-02-16T12:09:28;13.50;89.30
67529;DHT22;54366;51.980;5.856;2024-02-16T12:11:55;13.40;89.30
67529;DHT22;54366;51.980;5.856;2024-02-16T12:14:22;13.50;89.40
67529;DHT22;54366;51.980;5.856;2024-02-16T12:16:49;13.50;89.40
67529;DHT22;54366;51.980;5.856;2024-02-16T12:19:17;13.50;89.40
67529;DHT22;54366;51.980;5.856;2024-02-16T12:21:44;13.50;89.60
67529;DHT22;54366;51.980;5.856;2024-02-16T12:24:11;13.50;89.40
67529;DHT22;54366;51.980;5.856;2024-02-16T12:26:37;13.50;89.40
67529;DHT22;54366;51.980;5.856;2024-02-16T12:29:03;13.50;89.50
67529;DHT22;54366;51.980;5.856;2024-02-16T12:31:30;13.50;89.60
67529;DHT22;54366;51.980;5.856;2024-02-16T12:33:56;13.50;89.60
67529;DHT22;54366;51.980;5.856;2024-02-16T12:36:22;13.50;89.50
67529;DHT22;54366;51.980;5.856;2024-02-16T12:38:53;13.50;89.50
67529;DHT22;54366;51.980;5.856;2024-02-16T12:41:19;13.50;89.70
67529;DHT22;54366;51.980;5.856;2024-02-16T12:43:45;13.50;89.80
67529;DHT22;54366;51.980;5.856;2024-02-16T12:46:12;13.40;89.70
67529;DHT22;54366;51.980;5.856;2024-02-16T12:48:38;13.50;89.90
67529;DHT22;54366;51.980;5.856;2024-02-16T12:51:04;13.50;89.90
67529;DHT22;54366;51.980;5.856;2024-02-16T12:53:31;13.40;90.00
67529;DHT22;54366;51.980;5.856;2024-02-16T12:56:10;13.50;90.10
67529;DHT22;54366;51.980;5.856;2024-02-16T12:58:36;13.40;90.10
67529;DHT22;54366;51.980;5.856;2024-02-16T13:01:03;13.40;90.10
67529;DHT22;54366;51.980;5.856;2024-02-16T13:03:35;13.40;90.20
67529;DHT22;54366;51.980;5.856;2024-02-16T13:06:02;13.40;90.20
67529;DHT22;54366;51.980;5.856;2024-02-16T13:08:29;13.40;90.20
67529;DHT22;54366;51.980;5.856;2024-02-16T13:10:58;13.40;90.20
67529;DHT22;54366;51.980;5.856;2024-02-16T13:13:25;13.40;90.30
67529;DHT22;54366;51.980;5.856;2024-02-16T13:15:51;13.40;90.30
67529;DHT22;54366;51.980;5.856;2024-02-16T13:18:18;13.40;90.30
67529;DHT22;54366;51.980;5.856;2024-02-16T13:20:44;13.40;90.30
67529;DHT22;54366;51.980;5.856;2024-02-16T13:23:11;13.40;90.40
67529;DHT22;54366;51.980;5.856;2024-02-16T13:25:37;13.40;90.40
67529;DHT22;54366;51.980;5.856;2024-02-16T13:28:04;13.40;90.60
67529;DHT22;54366;51.980;5.856;2024-02-16T13:30:31;13.40;90.50
67529;DHT22;54366;51.980;5.856;2024-02-16T13:32:57;13.40;90.50
67529;DHT22;54366;51.980;5.856;2024-02-16T13:35:24;13.50;90.50
67529;DHT22;54366;51.980;5.856;2024-02-16T13:37:50;13.50;90.50
67529;DHT22;54366;51.980;5.856;2024-02-16T13:40:17;13.50;90.60
67529;DHT22;54366;51.980;5.856;2024-02-16T13:42:44;13.50;90.60
67529;DHT22;54366;51.980;5.856;2024-02-16T13:45:11;13.50;90.50
67529;DHT22;54366;51.980;5.856;2024-02-16T13:47:37;13.50;90.50
67529;DHT22;54366;51.980;5.856;2024-02-16T13:50:07;13.50;90.50
67529;DHT22;54366;51.980;5.856;2024-02-16T13:52:34;13.60;90.50
67529;DHT22;54366;51.980;5.856;2024-02-16T13:55:01;13.50;90.40
67529;DHT22;54366;51.980;5.856;2024-02-16T13:57:27;13.60;90.40
67529;DHT22;54366;51.980;5.856;2024-02-16T13:59:54;13.60;90.40
67529;DHT22;54366;51.980;5.856;2024-02-16T14:02:20;13.60;90.40
67529;DHT22;54366;51.980;5.856;2024-02-16T14:04:47;13.60;90.40
67529;DHT22;54366;51.980;5.856;2024-02-16T14:07:13;13.60;90.40
67529;DHT22;54366;51.980;5.856;2024-02-16T14:09:39;13.60;90.40
67529;DHT22;54366;51.980;5.856;2024-02-16T14:12:06;13.60;90.40
67529;DHT22;54366;51.980;5.856;2024-02-16T14:14:32;13.60;90.30
67529;DHT22;54366;51.980;5.856;2024-02-16T14:16:58;13.60;90.30
67529;DHT22;54366;51.980;5.856;2024-02-16T14:19:25;13.60;90.30
67529;DHT22;54366;51.980;5.856;2024-02-16T14:21:51;13.60;90.30
67529;DHT22;54366;51.980;5.856;2024-02-16T14:24:17;13.60;90.30
67529;DHT22;54366;51.980;5.856;2024-02-16T14:26:44;13.60;90.30
67529;DHT22;54366;51.980;5.856;2024-02-16T14:29:10;13.60;90.30
67529;DHT22;54366;51.980;5.856;2024-02-16T14:31:36;13.70;90.30
67529;DHT22;54366;51.980;5.856;2024-02-16T14:34:03;13.60;90.30
67529;DHT22;54366;51.980;5.856;2024-02-16T14:36:29;13.60;90.30
67529;DHT22;54366;51.980;5.856;2024-02-16T14:38:55;13.60;90.20
67529;DHT22;54366;51.980;5.856;2024-02-16T14:41:22;13.60;90.20
67529;DHT22;54366;51.980;5.856;2024-02-16T14:43:49;13.60;90.20
67529;DHT22;54366;51.980;5.856;2024-02-16T14:46:15;13.60;90.20
67529;DHT22;54366;51.980;5.856;2024-02-16T14:48:42;13.70;90.20
67529;DHT22;54366;51.980;5.856;2024-02-16T14:51:08;13.70;90.00
67529;DHT22;54366;51.980;5.856;2024-02-16T14:53:35;13.60;89.30
67529;DHT22;54366;51.980;5.856;2024-02-16T14:56:01;13.60;89.10
67529;DHT22;54366;51.980;5.856;2024-02-16T14:58:29;13.60;89.40
67529;DHT22;54366;51.980;5.856;2024-02-16T15:00:55;13.60;89.30
67529;DHT22;54366;51.980;5.856;2024-02-16T15:03:22;13.60;89.30
67529;DHT22;54366;51.980;5.856;2024-02-16T15:05:49;13.60;89.40
67529;DHT22;54366;51.980;5.856;2024-02-16T15:08:15;13.60;89.40
67529;DHT22;54366;51.980;5.856;2024-02-16T15:10:41;13.50;89.40
67529;DHT22;54366;51.980;5.856;2024-02-16T15:13:09;13.50;89.90
67529;DHT22;54366;51.980;5.856;2024-02-16T15:15:35;13.60;89.50
67529;DHT22;54366;51.980;5.856;2024-02-16T15:18:02;13.60;89.60
67529;DHT22;54366;51.980;5.856;2024-02-16T15:20:30;13.60;89.60
67529;DHT22;54366;51.980;5.856;2024-02-16T15:22:56;13.60;89.60
67529;DHT22;54366;51.980;5.856;2024-02-16T15:25:24;13.60;89.60
67529;DHT22;54366;51.980;5.856;2024-02-16T15:27:51;13.60;89.60
67529;DHT22;54366;51.980;5.856;2024-02-16T15:30:18;13.60;89.60